Alder Creek, New York
Current Conditions -  °F | °C
As of 12:53 AM on Wednesday 28 Jan 2015 (Local Time) from KRME Reporting Station
Clear Clear  
Wind Chill: -7°   Ceiling: Unl
Heat Index:   Visibility: 10mi
Dew Point: -4°   Wind: 12mph
Humidity: 58%   Direction: 290°WNW
Pressure: 30.01"   Gusts: NA
Location:  43.42°N, 75.23°W
Report Text: KRME 280553Z AUTO 29010KT 10SM CLR M13/M20 A3001 RMK AO2 SLP170 T11331200 11117 21133 53001
Loading
Personal Weather Stations






























Interactive Weather Map New forecast layout! Learn more

10-Day Weather Forecast

Advertisements
Track Severe Weather on mobile